METAR AND TAF INFORMATION
METAR FOR UNNT
ADDS - METARS form results

(2311 UTC 10 December 2018)
Data provider http://aviationweather.gov/metar/data/
 
METAR text: UNNT 102300Z 11002MPS 090V170 6000 NSC M20/M22 Q1031 R07/810160 R16/810160 NOSIG RMK QFE763/1018
Conditions at: UNNT (TOLMACHEVO , RU) observed 2300 UTC 10 December 2018
Temperature: -20.0°C (-4°F)
Dewpoint: -22.0°C (-8°F) [RH = 84%]
Pressure (altimeter): 30.44 inches Hg (1031.0 mb)
Winds: from the ESE (110 degrees) at 5 MPH (4 knots; 2.1 m/s)
Visibility: 4 miles ( 6 km)
Ceiling: at least 12,000 feet AGL
Clouds: sky clear below 12,000 feet AGL
Weather: no significant weather observed at this time

METAR text: UNNT 102230Z 10002MPS 5000 BR FU NSC M19/M22 Q1031 R07/810160 R16/810160 NOSIG RMK QFE763/1018
Conditions at: UNNT (TOLMACHEVO , RU) observed 2230 UTC 10 December 2018
Temperature: -19.0°C (-2°F)
Dewpoint: -22.0°C (-8°F) [RH = 77%]
Pressure (altimeter): 30.44 inches Hg (1031.0 mb)
Winds: from the E (100 degrees) at 5 MPH (4 knots; 2.1 m/s)
Visibility: 3 miles ( 5 km)
Ceiling: at least 12,000 feet AGL
Clouds: sky clear below 12,000 feet AGL
Weather: BR FU  (mist, smoke)

Forecast for: UNNT (TOLMACHEVO , RU)
Text: TAF UNNT 102000Z 1021/1121 16003MPS 3000 BR NSC
Forecast period: 2100 UTC 10 December 2018 to 0500 UTC 11 December 2018
Forecast type: FROM: standard forecast or significant change
Winds: from the SSE (160 degrees) at 7 MPH (6 knots; 3.1 m/s)
Visibility: 1.86 miles (2.99 km)
Ceiling: unknown
Clouds: missing
Weather: BR  (mist)
Text: TEMPO 1021/1105 0350 FZFG FU SCT002 BKN011
Forecast period: 2100 UTC 10 December 2018 to 0500 UTC 11 December 2018
Forecast type: TEMPORARY: The following changes expected for less than half the time period
Visibility: 0.22 miles (0.35 km)
Ceiling: 1100 feet AGL
Clouds: scattered clouds at 200 feet AGL
broken clouds at 1100 feet AGL
Weather: FZFG FU  (freezing fog, smoke)
Text: BECMG 1105/1106 5000 FU
Forecast period: 0500 to 2100 UTC 11 December 2018
Forecast type: BECOMING: Conditions expected to become as follows by 0600 UTC 11 December 2018
Winds: from the SSE (160 degrees) at 7 MPH (6 knots; 3.1 m/s)
Visibility: 3 miles (5 km)
Ceiling: unknown
Clouds: missing
Weather: FU  (smoke)

 AIRPORT MAP

 RUNWAY INFORMATION

 AIRPORT FREQUENCIES
Type APP Name NOVOSIBIRS Frequency 127.5 MHZ
Type ATIS Name NOVOSIBIRS Frequency 127.4 MHZ
Type GND Name NOVOSIBIRS Frequency 121.7 MHZ
Type PMSV Name NOVOSIBIRS Frequency 128.3 MHZ
Type RDR Name NOVOSIBIRS Frequency 122 MHZ
Type TWR Name NOVOSIBIRS Frequency 118.5 MHZ

 AIRPORT NEAR NAVIGATION AIDS
Type NDB Name Tolmachevo Frequency 310 KHZ
Type VOR-DME Name Novosibirsk Frequency 113300 KHZ
Type NDB Name Tolmachevo Frequency 310 KHZ



2018 Air Astana Virtual Airline